sensor_id;sensor_type;location;lat;lon;timestamp;P1;durP1;ratioP1;P2;durP2;ratioP2
40621;SDS011;26324;52.040;11.528;2022-07-11T00:02:14;1999.90;;;999.90;;
40621;SDS011;26324;52.040;11.528;2022-07-11T00:04:40;1999.90;;;999.90;;
40621;SDS011;26324;52.040;11.528;2022-07-11T00:07:07;1999.90;;;999.90;;
40621;SDS011;26324;52.040;11.528;2022-07-11T00:09:33;1999.90;;;999.90;;
40621;SDS011;26324;52.040;11.528;2022-07-11T00:11:59;1999.90;;;999.90;;
40621;SDS011;26324;52.040;11.528;2022-07-11T00:14:25;1999.90;;;999.90;;
40621;SDS011;26324;52.040;11.528;2022-07-11T00:16:51;1999.90;;;999.90;;
40621;SDS011;26324;52.040;11.528;2022-07-11T00:19:18;1999.90;;;999.90;;
40621;SDS011;26324;52.040;11.528;2022-07-11T00:21:44;1999.90;;;999.90;;
40621;SDS011;26324;52.040;11.528;2022-07-11T00:24:10;1999.90;;;999.90;;
40621;SDS011;26324;52.040;11.528;2022-07-11T00:26:36;1999.90;;;999.90;;
40621;SDS011;26324;52.040;11.528;2022-07-11T00:29:03;1999.90;;;999.90;;
40621;SDS011;26324;52.040;11.528;2022-07-11T00:31:29;1999.90;;;999.90;;
40621;SDS011;26324;52.040;11.528;2022-07-11T00:33:55;1999.90;;;999.90;;
40621;SDS011;26324;52.040;11.528;2022-07-11T00:36:21;1999.90;;;999.90;;
40621;SDS011;26324;52.040;11.528;2022-07-11T00:38:47;1999.90;;;999.90;;
40621;SDS011;26324;52.040;11.528;2022-07-11T00:41:12;1999.90;;;999.90;;
40621;SDS011;26324;52.040;11.528;2022-07-11T00:43:39;1999.90;;;999.90;;
40621;SDS011;26324;52.040;11.528;2022-07-11T00:46:06;1999.90;;;999.90;;
40621;SDS011;26324;52.040;11.528;2022-07-11T00:48:33;1999.90;;;999.90;;
40621;SDS011;26324;52.040;11.528;2022-07-11T00:51:00;1999.90;;;999.90;;
40621;SDS011;26324;52.040;11.528;2022-07-11T00:53:28;1999.90;;;999.90;;
40621;SDS011;26324;52.040;11.528;2022-07-11T00:55:54;1999.90;;;999.90;;
40621;SDS011;26324;52.040;11.528;2022-07-11T00:58:20;1999.90;;;999.90;;
40621;SDS011;26324;52.040;11.528;2022-07-11T01:00:47;1999.90;;;999.90;;
40621;SDS011;26324;52.040;11.528;2022-07-11T01:03:13;1999.90;;;999.90;;
40621;SDS011;26324;52.040;11.528;2022-07-11T01:05:38;1999.90;;;999.90;;
40621;SDS011;26324;52.040;11.528;2022-07-11T01:08:04;1999.90;;;999.90;;
40621;SDS011;26324;52.040;11.528;2022-07-11T01:10:30;1999.90;;;999.90;;
40621;SDS011;26324;52.040;11.528;2022-07-11T01:12:57;1999.90;;;999.90;;
40621;SDS011;26324;52.040;11.528;2022-07-11T01:15:23;1999.90;;;999.90;;
40621;SDS011;26324;52.040;11.528;2022-07-11T01:17:49;1999.90;;;999.90;;
40621;SDS011;26324;52.040;11.528;2022-07-11T01:20:17;1999.90;;;999.90;;
40621;SDS011;26324;52.040;11.528;2022-07-11T01:22:43;1999.90;;;999.90;;
40621;SDS011;26324;52.040;11.528;2022-07-11T01:25:14;1999.90;;;999.90;;
40621;SDS011;26324;52.040;11.528;2022-07-11T01:28:04;1999.90;;;999.90;;
40621;SDS011;26324;52.040;11.528;2022-07-11T01:30:32;1999.90;;;999.90;;
40621;SDS011;26324;52.040;11.528;2022-07-11T01:32:58;1999.90;;;999.90;;
40621;SDS011;26324;52.040;11.528;2022-07-11T01:35:24;1999.90;;;999.90;;
40621;SDS011;26324;52.040;11.528;2022-07-11T01:37:50;1999.90;;;999.90;;
40621;SDS011;26324;52.040;11.528;2022-07-11T01:43:00;1999.90;;;999.90;;
40621;SDS011;26324;52.040;11.528;2022-07-11T01:45:26;1999.90;;;999.90;;
40621;SDS011;26324;52.040;11.528;2022-07-11T01:47:51;1999.90;;;999.90;;
40621;SDS011;26324;52.040;11.528;2022-07-11T01:50:17;1999.90;;;999.90;;
40621;SDS011;26324;52.040;11.528;2022-07-11T01:52:42;1999.90;;;999.90;;
40621;SDS011;26324;52.040;11.528;2022-07-11T01:55:08;1999.90;;;999.90;;
40621;SDS011;26324;52.040;11.528;2022-07-11T01:57:36;1999.90;;;999.90;;
40621;SDS011;26324;52.040;11.528;2022-07-11T02:00:02;1999.90;;;999.90;;
40621;SDS011;26324;52.040;11.528;2022-07-11T02:02:28;1999.90;;;999.90;;
40621;SDS011;26324;52.040;11.528;2022-07-11T02:04:53;1999.90;;;999.90;;
40621;SDS011;26324;52.040;11.528;2022-07-11T02:07:22;1999.90;;;999.90;;
40621;SDS011;26324;52.040;11.528;2022-07-11T02:10:20;1999.90;;;999.90;;
40621;SDS011;26324;52.040;11.528;2022-07-11T02:12:47;1999.90;;;999.90;;
40621;SDS011;26324;52.040;11.528;2022-07-11T02:15:13;1999.90;;;999.90;;
40621;SDS011;26324;52.040;11.528;2022-07-11T02:17:50;1999.90;;;999.90;;
40621;SDS011;26324;52.040;11.528;2022-07-11T02:20:18;1999.90;;;999.90;;
40621;SDS011;26324;52.040;11.528;2022-07-11T02:22:44;1999.90;;;999.90;;
40621;SDS011;26324;52.040;11.528;2022-07-11T02:25:10;1999.90;;;999.90;;
40621;SDS011;26324;52.040;11.528;2022-07-11T02:27:37;1999.90;;;999.90;;
40621;SDS011;26324;52.040;11.528;2022-07-11T02:30:02;1999.90;;;999.90;;
40621;SDS011;26324;52.040;11.528;2022-07-11T02:32:28;1999.90;;;999.90;;
40621;SDS011;26324;52.040;11.528;2022-07-11T02:34:53;1999.90;;;999.90;;
40621;SDS011;26324;52.040;11.528;2022-07-11T02:37:19;1999.90;;;999.90;;
40621;SDS011;26324;52.040;11.528;2022-07-11T02:39:49;1999.90;;;999.90;;
40621;SDS011;26324;52.040;11.528;2022-07-11T02:42:14;1999.90;;;999.90;;
40621;SDS011;26324;52.040;11.528;2022-07-11T02:44:40;1999.90;;;999.90;;
40621;SDS011;26324;52.040;11.528;2022-07-11T02:47:07;1999.90;;;999.90;;
40621;SDS011;26324;52.040;11.528;2022-07-11T02:49:32;1999.90;;;999.90;;
40621;SDS011;26324;52.040;11.528;2022-07-11T02:51:58;1999.90;;;999.90;;
40621;SDS011;26324;52.040;11.528;2022-07-11T02:54:24;1999.90;;;999.90;;
40621;SDS011;26324;52.040;11.528;2022-07-11T02:56:49;1999.90;;;999.90;;
40621;SDS011;26324;52.040;11.528;2022-07-11T02:59:15;1999.90;;;999.90;;
40621;SDS011;26324;52.040;11.528;2022-07-11T03:01:41;1999.90;;;999.90;;
40621;SDS011;26324;52.040;11.528;2022-07-11T03:04:09;1999.90;;;999.90;;
40621;SDS011;26324;52.040;11.528;2022-07-11T03:06:36;1999.90;;;999.90;;
40621;SDS011;26324;52.040;11.528;2022-07-11T03:09:03;1999.90;;;999.90;;
40621;SDS011;26324;52.040;11.528;2022-07-11T03:11:29;1999.90;;;999.90;;
40621;SDS011;26324;52.040;11.528;2022-07-11T03:13:55;1999.90;;;999.90;;
40621;SDS011;26324;52.040;11.528;2022-07-11T03:16:20;1999.90;;;999.90;;
40621;SDS011;26324;52.040;11.528;2022-07-11T03:18:46;1999.90;;;999.90;;
40621;SDS011;26324;52.040;11.528;2022-07-11T03:21:11;1999.90;;;999.90;;
40621;SDS011;26324;52.040;11.528;2022-07-11T03:23:37;1999.90;;;999.90;;
40621;SDS011;26324;52.040;11.528;2022-07-11T03:28:52;1999.90;;;999.90;;
40621;SDS011;26324;52.040;11.528;2022-07-11T03:31:18;1999.90;;;999.90;;
40621;SDS011;26324;52.040;11.528;2022-07-11T03:33:44;1999.90;;;999.90;;
40621;SDS011;26324;52.040;11.528;2022-07-11T03:38:46;1999.90;;;999.90;;
40621;SDS011;26324;52.040;11.528;2022-07-11T03:43:42;1999.90;;;999.90;;
40621;SDS011;26324;52.040;11.528;2022-07-11T03:46:08;1999.90;;;999.90;;
40621;SDS011;26324;52.040;11.528;2022-07-11T03:48:33;1999.90;;;999.90;;
40621;SDS011;26324;52.040;11.528;2022-07-11T03:50:59;1999.90;;;999.90;;
40621;SDS011;26324;52.040;11.528;2022-07-11T03:53:25;1999.90;;;999.90;;
40621;SDS011;26324;52.040;11.528;2022-07-11T03:55:50;1999.90;;;999.90;;
40621;SDS011;26324;52.040;11.528;2022-07-11T03:58:15;1999.90;;;999.90;;
40621;SDS011;26324;52.040;11.528;2022-07-11T04:00:41;1999.90;;;999.90;;
40621;SDS011;26324;52.040;11.528;2022-07-11T04:03:07;1999.90;;;999.90;;
40621;SDS011;26324;52.040;11.528;2022-07-11T04:05:32;1999.90;;;999.90;;
40621;SDS011;26324;52.040;11.528;2022-07-11T04:07:59;1999.90;;;999.90;;
40621;SDS011;26324;52.040;11.528;2022-07-11T04:10:24;1999.90;;;999.90;;
40621;SDS011;26324;52.040;11.528;2022-07-11T04:12:50;1999.90;;;999.90;;
40621;SDS011;26324;52.040;11.528;2022-07-11T04:15:15;1999.90;;;999.90;;
40621;SDS011;26324;52.040;11.528;2022-07-11T04:17:53;1999.90;;;999.90;;
40621;SDS011;26324;52.040;11.528;2022-07-11T04:20:19;1999.90;;;999.90;;
40621;SDS011;26324;52.040;11.528;2022-07-11T04:22:45;1999.90;;;999.90;;
40621;SDS011;26324;52.040;11.528;2022-07-11T04:25:10;1999.90;;;999.90;;
40621;SDS011;26324;52.040;11.528;2022-07-11T04:27:36;1999.90;;;999.90;;
40621;SDS011;26324;52.040;11.528;2022-07-11T04:30:02;1999.90;;;999.90;;
40621;SDS011;26324;52.040;11.528;2022-07-11T04:32:27;1999.90;;;999.90;;
40621;SDS011;26324;52.040;11.528;2022-07-11T04:34:53;1999.90;;;999.90;;
40621;SDS011;26324;52.040;11.528;2022-07-11T04:37:19;1999.90;;;999.90;;
40621;SDS011;26324;52.040;11.528;2022-07-11T04:39:44;1999.90;;;999.90;;
40621;SDS011;26324;52.040;11.528;2022-07-11T04:42:11;1999.90;;;999.90;;
40621;SDS011;26324;52.040;11.528;2022-07-11T04:44:37;1999.90;;;999.90;;
40621;SDS011;26324;52.040;11.528;2022-07-11T04:47:02;1999.90;;;999.90;;
40621;SDS011;26324;52.040;11.528;2022-07-11T04:49:28;1999.90;;;999.90;;
40621;SDS011;26324;52.040;11.528;2022-07-11T04:51:54;1999.90;;;999.90;;
40621;SDS011;26324;52.040;11.528;2022-07-11T04:54:20;1999.90;;;999.90;;
40621;SDS011;26324;52.040;11.528;2022-07-11T04:56:47;1999.90;;;999.90;;
40621;SDS011;26324;52.040;11.528;2022-07-11T04:59:14;1999.90;;;999.90;;
40621;SDS011;26324;52.040;11.528;2022-07-11T05:01:39;1999.90;;;999.90;;
40621;SDS011;26324;52.040;11.528;2022-07-11T05:04:05;1999.90;;;999.90;;
40621;SDS011;26324;52.040;11.528;2022-07-11T05:06:32;1999.90;;;999.90;;
40621;SDS011;26324;52.040;11.528;2022-07-11T05:08:58;1999.90;;;999.90;;
40621;SDS011;26324;52.040;11.528;2022-07-11T05:11:23;1999.90;;;999.90;;
40621;SDS011;26324;52.040;11.528;2022-07-11T05:13:49;1999.90;;;999.90;;
40621;SDS011;26324;52.040;11.528;2022-07-11T05:16:15;1999.90;;;999.90;;
40621;SDS011;26324;52.040;11.528;2022-07-11T05:18:40;1999.90;;;999.90;;
40621;SDS011;26324;52.040;11.528;2022-07-11T05:21:06;1999.90;;;999.90;;
40621;SDS011;26324;52.040;11.528;2022-07-11T05:23:31;1999.90;;;999.90;;
40621;SDS011;26324;52.040;11.528;2022-07-11T05:25:57;1999.90;;;999.90;;
40621;SDS011;26324;52.040;11.528;2022-07-11T05:28:22;1999.90;;;999.90;;
40621;SDS011;26324;52.040;11.528;2022-07-11T05:30:48;1999.90;;;999.90;;
40621;SDS011;26324;52.040;11.528;2022-07-11T05:33:13;1999.90;;;999.90;;
40621;SDS011;26324;52.040;11.528;2022-07-11T05:35:39;1999.90;;;999.90;;
40621;SDS011;26324;52.040;11.528;2022-07-11T05:38:04;1999.90;;;999.90;;
40621;SDS011;26324;52.040;11.528;2022-07-11T05:40:30;1999.90;;;999.90;;
40621;SDS011;26324;52.040;11.528;2022-07-11T05:42:55;1999.90;;;999.90;;
40621;SDS011;26324;52.040;11.528;2022-07-11T05:45:21;1999.90;;;999.90;;
40621;SDS011;26324;52.040;11.528;2022-07-11T05:47:46;1999.90;;;999.90;;
40621;SDS011;26324;52.040;11.528;2022-07-11T05:50:12;1999.90;;;999.90;;
40621;SDS011;26324;52.040;11.528;2022-07-11T05:52:38;1999.90;;;999.90;;
40621;SDS011;26324;52.040;11.528;2022-07-11T05:55:03;1999.90;;;999.90;;
40621;SDS011;26324;52.040;11.528;2022-07-11T05:57:29;1999.90;;;999.90;;
40621;SDS011;26324;52.040;11.528;2022-07-11T05:59:55;1999.90;;;999.90;;
40621;SDS011;26324;52.040;11.528;2022-07-11T06:02:20;1999.90;;;999.90;;
40621;SDS011;26324;52.040;11.528;2022-07-11T06:04:46;1999.90;;;999.90;;
40621;SDS011;26324;52.040;11.528;2022-07-11T06:07:11;1999.90;;;999.90;;
40621;SDS011;26324;52.040;11.528;2022-07-11T06:09:57;1999.90;;;999.90;;
40621;SDS011;26324;52.040;11.528;2022-07-11T06:12:22;1999.90;;;999.90;;
40621;SDS011;26324;52.040;11.528;2022-07-11T06:14:48;1999.90;;;999.90;;
40621;SDS011;26324;52.040;11.528;2022-07-11T06:17:13;1999.90;;;999.90;;
40621;SDS011;26324;52.040;11.528;2022-07-11T06:19:39;1999.90;;;999.90;;
40621;SDS011;26324;52.040;11.528;2022-07-11T06:22:04;1999.90;;;999.90;;
40621;SDS011;26324;52.040;11.528;2022-07-11T06:24:30;1999.90;;;999.90;;
40621;SDS011;26324;52.040;11.528;2022-07-11T06:26:56;1999.90;;;999.90;;
40621;SDS011;26324;52.040;11.528;2022-07-11T06:29:25;1999.90;;;999.90;;
40621;SDS011;26324;52.040;11.528;2022-07-11T06:31:51;1999.90;;;999.90;;
40621;SDS011;26324;52.040;11.528;2022-07-11T06:34:17;1999.90;;;999.90;;
40621;SDS011;26324;52.040;11.528;2022-07-11T06:36:43;1999.90;;;999.90;;
40621;SDS011;26324;52.040;11.528;2022-07-11T06:39:08;1999.90;;;999.90;;
40621;SDS011;26324;52.040;11.528;2022-07-11T06:41:34;1999.90;;;999.90;;
40621;SDS011;26324;52.040;11.528;2022-07-11T06:43:59;1999.90;;;999.90;;
40621;SDS011;26324;52.040;11.528;2022-07-11T06:46:25;1999.90;;;999.90;;
40621;SDS011;26324;52.040;11.528;2022-07-11T06:48:52;1999.90;;;999.90;;
40621;SDS011;26324;52.040;11.528;2022-07-11T06:51:18;1999.90;;;999.90;;
40621;SDS011;26324;52.040;11.528;2022-07-11T06:53:43;1999.90;;;999.90;;
40621;SDS011;26324;52.040;11.528;2022-07-11T06:56:09;1999.90;;;999.90;;
40621;SDS011;26324;52.040;11.528;2022-07-11T06:58:35;1999.90;;;999.90;;
40621;SDS011;26324;52.040;11.528;2022-07-11T07:01:02;1999.90;;;999.90;;
40621;SDS011;26324;52.040;11.528;2022-07-11T07:03:28;1999.90;;;999.90;;
40621;SDS011;26324;52.040;11.528;2022-07-11T07:05:55;1999.90;;;999.90;;
40621;SDS011;26324;52.040;11.528;2022-07-11T07:08:28;1999.90;;;999.90;;
40621;SDS011;26324;52.040;11.528;2022-07-11T07:10:54;1999.90;;;999.90;;
40621;SDS011;26324;52.040;11.528;2022-07-11T07:13:20;1999.90;;;999.90;;
40621;SDS011;26324;52.040;11.528;2022-07-11T07:15:50;1999.90;;;999.90;;
40621;SDS011;26324;52.040;11.528;2022-07-11T07:18:16;1999.90;;;999.90;;
40621;SDS011;26324;52.040;11.528;2022-07-11T07:20:42;1999.90;;;999.90;;
40621;SDS011;26324;52.040;11.528;2022-07-11T07:23:07;1999.90;;;999.90;;
40621;SDS011;26324;52.040;11.528;2022-07-11T07:25:33;1999.90;;;999.90;;
40621;SDS011;26324;52.040;11.528;2022-07-11T07:27:59;1999.90;;;999.90;;
40621;SDS011;26324;52.040;11.528;2022-07-11T07:30:25;1999.90;;;999.90;;
40621;SDS011;26324;52.040;11.528;2022-07-11T07:32:50;1999.90;;;999.90;;
40621;SDS011;26324;52.040;11.528;2022-07-11T07:35:16;1999.90;;;999.90;;
40621;SDS011;26324;52.040;11.528;2022-07-11T07:37:41;1999.90;;;999.90;;
40621;SDS011;26324;52.040;11.528;2022-07-11T07:40:07;1999.90;;;999.90;;
40621;SDS011;26324;52.040;11.528;2022-07-11T07:42:33;1999.90;;;999.90;;
40621;SDS011;26324;52.040;11.528;2022-07-11T07:44:58;1999.90;;;999.90;;
40621;SDS011;26324;52.040;11.528;2022-07-11T07:47:24;1999.90;;;999.90;;
40621;SDS011;26324;52.040;11.528;2022-07-11T07:49:49;1999.90;;;999.90;;
40621;SDS011;26324;52.040;11.528;2022-07-11T07:52:15;1999.90;;;999.90;;
40621;SDS011;26324;52.040;11.528;2022-07-11T07:54:40;1999.90;;;999.90;;
40621;SDS011;26324;52.040;11.528;2022-07-11T07:57:06;1999.90;;;999.90;;
40621;SDS011;26324;52.040;11.528;2022-07-11T07:59:32;1999.90;;;999.90;;
40621;SDS011;26324;52.040;11.528;2022-07-11T08:01:57;1999.90;;;999.90;;
40621;SDS011;26324;52.040;11.528;2022-07-11T08:04:22;1999.90;;;999.90;;
40621;SDS011;26324;52.040;11.528;2022-07-11T08:06:48;1999.90;;;999.90;;
40621;SDS011;26324;52.040;11.528;2022-07-11T08:09:13;1999.90;;;999.90;;
40621;SDS011;26324;52.040;11.528;2022-07-11T08:11:39;1999.90;;;999.90;;
40621;SDS011;26324;52.040;11.528;2022-07-11T08:14:05;1999.90;;;999.90;;
40621;SDS011;26324;52.040;11.528;2022-07-11T08:16:33;1999.90;;;999.90;;
40621;SDS011;26324;52.040;11.528;2022-07-11T08:19:00;1999.90;;;999.90;;
40621;SDS011;26324;52.040;11.528;2022-07-11T08:21:28;1999.90;;;999.90;;
40621;SDS011;26324;52.040;11.528;2022-07-11T08:23:54;1999.90;;;999.90;;
40621;SDS011;26324;52.040;11.528;2022-07-11T08:26:21;1999.90;;;999.90;;
40621;SDS011;26324;52.040;11.528;2022-07-11T08:28:46;1999.90;;;999.90;;
40621;SDS011;26324;52.040;11.528;2022-07-11T08:31:12;1999.90;;;999.90;;
40621;SDS011;26324;52.040;11.528;2022-07-11T08:33:37;1999.90;;;999.90;;
40621;SDS011;26324;52.040;11.528;2022-07-11T08:36:03;1999.90;;;999.90;;
40621;SDS011;26324;52.040;11.528;2022-07-11T08:38:29;1999.90;;;999.90;;
40621;SDS011;26324;52.040;11.528;2022-07-11T08:40:54;1999.90;;;999.90;;
40621;SDS011;26324;52.040;11.528;2022-07-11T08:43:26;1999.90;;;999.90;;
40621;SDS011;26324;52.040;11.528;2022-07-11T08:45:54;1999.90;;;999.90;;
40621;SDS011;26324;52.040;11.528;2022-07-11T08:48:20;1999.90;;;999.90;;
40621;SDS011;26324;52.040;11.528;2022-07-11T08:50:47;1999.90;;;999.90;;
40621;SDS011;26324;52.040;11.528;2022-07-11T08:53:13;1999.90;;;999.90;;
40621;SDS011;26324;52.040;11.528;2022-07-11T08:55:39;1999.90;;;999.90;;
40621;SDS011;26324;52.040;11.528;2022-07-11T08:58:06;1999.90;;;999.90;;
40621;SDS011;26324;52.040;11.528;2022-07-11T09:00:33;1999.90;;;999.90;;
40621;SDS011;26324;52.040;11.528;2022-07-11T09:02:59;1999.90;;;999.90;;
40621;SDS011;26324;52.040;11.528;2022-07-11T09:05:27;1999.90;;;999.90;;
40621;SDS011;26324;52.040;11.528;2022-07-11T09:07:53;1999.90;;;999.90;;
40621;SDS011;26324;52.040;11.528;2022-07-11T09:10:18;1999.90;;;999.90;;
40621;SDS011;26324;52.040;11.528;2022-07-11T09:12:57;1999.90;;;999.90;;
40621;SDS011;26324;52.040;11.528;2022-07-11T09:15:31;1999.90;;;999.90;;
40621;SDS011;26324;52.040;11.528;2022-07-11T09:17:57;1999.90;;;999.90;;
40621;SDS011;26324;52.040;11.528;2022-07-11T09:20:22;1999.90;;;999.90;;
40621;SDS011;26324;52.040;11.528;2022-07-11T09:22:48;1999.90;;;999.90;;
40621;SDS011;26324;52.040;11.528;2022-07-11T09:25:32;1999.90;;;999.90;;
40621;SDS011;26324;52.040;11.528;2022-07-11T09:28:07;1999.90;;;999.90;;
40621;SDS011;26324;52.040;11.528;2022-07-11T09:30:36;1999.90;;;999.90;;
40621;SDS011;26324;52.040;11.528;2022-07-11T09:33:12;1999.90;;;999.90;;
40621;SDS011;26324;52.040;11.528;2022-07-11T09:35:38;1999.90;;;999.90;;
40621;SDS011;26324;52.040;11.528;2022-07-11T09:38:10;1999.90;;;999.90;;
40621;SDS011;26324;52.040;11.528;2022-07-11T09:40:43;1999.90;;;999.90;;
40621;SDS011;26324;52.040;11.528;2022-07-11T09:43:09;1999.90;;;999.90;;
40621;SDS011;26324;52.040;11.528;2022-07-11T09:45:35;1999.90;;;999.90;;
40621;SDS011;26324;52.040;11.528;2022-07-11T09:48:06;1999.90;;;999.90;;
40621;SDS011;26324;52.040;11.528;2022-07-11T09:50:36;1999.90;;;697.40;;
40621;SDS011;26324;52.040;11.528;2022-07-11T09:55:36;1999.90;;;999.90;;
40621;SDS011;26324;52.040;11.528;2022-07-11T09:58:14;1726.75;;;820.30;;
40621;SDS011;26324;52.040;11.528;2022-07-11T10:00:42;1999.90;;;999.90;;
40621;SDS011;26324;52.040;11.528;2022-07-11T10:03:09;1999.90;;;999.90;;
40621;SDS011;26324;52.040;11.528;2022-07-11T10:05:37;1999.90;;;999.90;;
40621;SDS011;26324;52.040;11.528;2022-07-11T10:08:03;1999.90;;;999.90;;
40621;SDS011;26324;52.040;11.528;2022-07-11T10:10:31;1999.90;;;999.90;;
40621;SDS011;26324;52.040;11.528;2022-07-11T10:12:57;1999.90;;;999.90;;
40621;SDS011;26324;52.040;11.528;2022-07-11T10:15:25;1999.90;;;999.90;;
40621;SDS011;26324;52.040;11.528;2022-07-11T10:20:38;1999.90;;;999.90;;
40621;SDS011;26324;52.040;11.528;2022-07-11T10:23:30;1999.90;;;999.90;;
40621;SDS011;26324;52.040;11.528;2022-07-11T10:29:05;1999.90;;;944.50;;
40621;SDS011;26324;52.040;11.528;2022-07-11T10:32:03;1999.90;;;999.90;;
40621;SDS011;26324;52.040;11.528;2022-07-11T10:34:35;1999.90;;;999.90;;
40621;SDS011;26324;52.040;11.528;2022-07-11T10:37:02;1999.90;;;741.25;;
40621;SDS011;26324;52.040;11.528;2022-07-11T10:39:29;1999.90;;;999.90;;
40621;SDS011;26324;52.040;11.528;2022-07-11T10:42:00;1999.90;;;999.90;;
40621;SDS011;26324;52.040;11.528;2022-07-11T10:44:28;1999.90;;;999.90;;
40621;SDS011;26324;52.040;11.528;2022-07-11T10:50:31;1999.90;;;999.90;;
40621;SDS011;26324;52.040;11.528;2022-07-11T10:52:54;1999.90;;;885.78;;
40621;SDS011;26324;52.040;11.528;2022-07-11T10:58:18;1999.90;;;999.90;;
40621;SDS011;26324;52.040;11.528;2022-07-11T11:01:06;1999.90;;;999.90;;
40621;SDS011;26324;52.040;11.528;2022-07-11T11:03:36;1461.97;;;515.55;;
40621;SDS011;26324;52.040;11.528;2022-07-11T11:06:03;1999.90;;;999.90;;
40621;SDS011;26324;52.040;11.528;2022-07-11T11:13:44;1999.90;;;999.90;;
40621;SDS011;26324;52.040;11.528;2022-07-11T11:16:21;1999.90;;;999.90;;
40621;SDS011;26324;52.040;11.528;2022-07-11T11:18:47;1999.90;;;999.90;;
40621;SDS011;26324;52.040;11.528;2022-07-11T11:21:16;1999.90;;;999.90;;
40621;SDS011;26324;52.040;11.528;2022-07-11T11:29:19;1999.90;;;999.90;;
40621;SDS011;26324;52.040;11.528;2022-07-11T11:31:51;1999.90;;;999.90;;
40621;SDS011;26324;52.040;11.528;2022-07-11T11:34:19;1999.90;;;928.20;;
40621;SDS011;26324;52.040;11.528;2022-07-11T11:36:51;1999.90;;;999.90;;
40621;SDS011;26324;52.040;11.528;2022-07-11T11:39:21;1999.90;;;999.90;;
40621;SDS011;26324;52.040;11.528;2022-07-11T11:41:51;1999.90;;;999.90;;
40621;SDS011;26324;52.040;11.528;2022-07-11T11:44:17;1999.90;;;999.90;;
40621;SDS011;26324;52.040;11.528;2022-07-11T11:46:42;1999.90;;;999.90;;
40621;SDS011;26324;52.040;11.528;2022-07-11T11:49:08;1999.90;;;999.90;;
40621;SDS011;26324;52.040;11.528;2022-07-11T11:51:34;1999.90;;;999.90;;
40621;SDS011;26324;52.040;11.528;2022-07-11T11:54:00;1999.90;;;999.90;;
40621;SDS011;26324;52.040;11.528;2022-07-11T11:56:34;1999.90;;;999.90;;
40621;SDS011;26324;52.040;11.528;2022-07-11T11:59:10;1999.90;;;999.90;;
40621;SDS011;26324;52.040;11.528;2022-07-11T12:01:41;1831.13;;;999.90;;
40621;SDS011;26324;52.040;11.528;2022-07-11T12:04:12;1646.93;;;999.90;;
40621;SDS011;26324;52.040;11.528;2022-07-11T12:06:40;1967.18;;;999.90;;
40621;SDS011;26324;52.040;11.528;2022-07-11T12:09:15;1999.90;;;999.90;;
40621;SDS011;26324;52.040;11.528;2022-07-11T12:14:51;1999.90;;;999.90;;
40621;SDS011;26324;52.040;11.528;2022-07-11T12:17:22;1999.90;;;999.90;;
40621;SDS011;26324;52.040;11.528;2022-07-11T12:19:49;1989.38;;;999.90;;
40621;SDS011;26324;52.040;11.528;2022-07-11T12:22:14;1936.50;;;999.90;;
40621;SDS011;26324;52.040;11.528;2022-07-11T12:24:40;1595.57;;;999.90;;
40621;SDS011;26324;52.040;11.528;2022-07-11T12:27:16;1999.90;;;999.90;;
40621;SDS011;26324;52.040;11.528;2022-07-11T12:29:49;1988.90;;;999.90;;
40621;SDS011;26324;52.040;11.528;2022-07-11T12:32:16;1474.95;;;999.90;;
40621;SDS011;26324;52.040;11.528;2022-07-11T12:34:43;1649.35;;;999.90;;
40621;SDS011;26324;52.040;11.528;2022-07-11T12:37:12;1427.40;;;999.90;;
40621;SDS011;26324;52.040;11.528;2022-07-11T12:40:00;1361.18;;;999.90;;
40621;SDS011;26324;52.040;11.528;2022-07-11T12:42:31;1235.93;;;999.90;;
40621;SDS011;26324;52.040;11.528;2022-07-11T12:47:32;1709.13;;;999.90;;
40621;SDS011;26324;52.040;11.528;2022-07-11T12:49:58;1941.22;;;999.90;;
40621;SDS011;26324;52.040;11.528;2022-07-11T12:52:39;1824.75;;;999.90;;
40621;SDS011;26324;52.040;11.528;2022-07-11T12:55:06;1405.70;;;999.90;;
40621;SDS011;26324;52.040;11.528;2022-07-11T12:57:32;1420.47;;;999.90;;
40621;SDS011;26324;52.040;11.528;2022-07-11T13:00:09;1341.82;;;999.90;;
40621;SDS011;26324;52.040;11.528;2022-07-11T13:02:41;1238.22;;;999.90;;
40621;SDS011;26324;52.040;11.528;2022-07-11T13:05:17;1237.82;;;999.90;;
40621;SDS011;26324;52.040;11.528;2022-07-11T13:07:43;1259.03;;;999.90;;
40621;SDS011;26324;52.040;11.528;2022-07-11T13:10:27;1270.85;;;999.90;;
40621;SDS011;26324;52.040;11.528;2022-07-11T13:13:15;1239.25;;;999.90;;
40621;SDS011;26324;52.040;11.528;2022-07-11T13:15:41;1315.07;;;999.90;;
40621;SDS011;26324;52.040;11.528;2022-07-11T13:18:10;1230.03;;;999.90;;
40621;SDS011;26324;52.040;11.528;2022-07-11T13:20:36;1169.28;;;999.90;;
40621;SDS011;26324;52.040;11.528;2022-07-11T13:23:02;1223.60;;;999.90;;
40621;SDS011;26324;52.040;11.528;2022-07-11T13:25:28;1301.65;;;999.90;;
40621;SDS011;26324;52.040;11.528;2022-07-11T13:27:54;1431.60;;;999.90;;
40621;SDS011;26324;52.040;11.528;2022-07-11T13:30:21;1259.65;;;999.90;;
40621;SDS011;26324;52.040;11.528;2022-07-11T13:32:51;1225.45;;;999.90;;
40621;SDS011;26324;52.040;11.528;2022-07-11T13:35:17;1220.60;;;999.90;;
40621;SDS011;26324;52.040;11.528;2022-07-11T13:37:44;1228.57;;;999.90;;
40621;SDS011;26324;52.040;11.528;2022-07-11T13:40:12;1203.68;;;999.90;;
40621;SDS011;26324;52.040;11.528;2022-07-11T13:42:43;1161.75;;;999.90;;
40621;SDS011;26324;52.040;11.528;2022-07-11T13:45:14;1112.10;;;999.90;;
40621;SDS011;26324;52.040;11.528;2022-07-11T13:47:44;1130.75;;;999.90;;
40621;SDS011;26324;52.040;11.528;2022-07-11T13:50:10;1171.65;;;999.90;;
40621;SDS011;26324;52.040;11.528;2022-07-11T13:52:35;1185.15;;;999.90;;
40621;SDS011;26324;52.040;11.528;2022-07-11T13:55:01;1242.15;;;999.90;;
40621;SDS011;26324;52.040;11.528;2022-07-11T13:57:28;1198.50;;;999.90;;
40621;SDS011;26324;52.040;11.528;2022-07-11T13:59:53;1207.63;;;999.90;;
40621;SDS011;26324;52.040;11.528;2022-07-11T14:02:21;1137.97;;;999.90;;
40621;SDS011;26324;52.040;11.528;2022-07-11T14:04:46;1121.28;;;999.90;;
40621;SDS011;26324;52.040;11.528;2022-07-11T14:07:13;1016.90;;;940.75;;
40621;SDS011;26324;52.040;11.528;2022-07-11T14:09:39;1079.97;;;991.17;;
40621;SDS011;26324;52.040;11.528;2022-07-11T14:12:05;992.17;;;916.25;;
40621;SDS011;26324;52.040;11.528;2022-07-11T14:14:32;1021.08;;;942.08;;
40621;SDS011;26324;52.040;11.528;2022-07-11T14:17:02;792.28;;;744.00;;
40621;SDS011;26324;52.040;11.528;2022-07-11T14:19:28;913.05;;;850.88;;